Meteorología y climatología de Navarra
Datos de la estación - Meteo Navarra

Estación de Eltzaburu GN

Altitud 588 m.


Datos desde el 02/08/2020 hasta el 03/08/2020 en horario solar
Los datos son PROVISIONALES

Anterior Página 1 de 1 Siguiente Descargar: Formato para Excel 2000 o superior   Formato csv   Formato para OpenOffice Calc
Fecha Temperatura Humedad relativa Radiación global Insolación Precipitación Vel. viento 10 m Vel. viento 10 m Dir. viento 10 m
ºC % W/m² s l/m² m/s km/h º
02/08/2020 0:00 15.9 93 0.0 0 0.0 2.2 8.0 345
02/08/2020 0:10 16.0 93 0.0 0 0.0 2.5 9.1 337
02/08/2020 0:20 15.9 94 0.0 0 0.0 2.2 8.1 337
02/08/2020 0:30 15.8 94 0.0 0 0.0 1.7 6.3 349
02/08/2020 0:40 15.8 94 0.0 0 0.0 2.0 7.2 336
02/08/2020 0:50 15.9 94 0.0 0 0.0 2.1 7.4 341
02/08/2020 1:00 15.9 94 0.0 0 0.0 1.7 6.2 325
02/08/2020 1:10 15.9 94 0.0 0 0.1 1.8 6.3 351
02/08/2020 1:20 15.7 95 0.0 0 0.0 1.7 6.0 335
02/08/2020 1:30 15.7 94 0.0 0 0.0 2.0 7.0 328
02/08/2020 1:40 15.6 92 0.0 0 0.0 2.2 7.9 332
02/08/2020 1:50 15.5 92 0.0 0 0.0 1.9 6.8 350
02/08/2020 2:00 15.5 92 0.0 0 0.0 1.8 6.6 349
02/08/2020 2:10 15.5 92 0.0 0 0.0 1.7 5.9 345
02/08/2020 2:20 15.4 93 0.0 0 0.0 1.2 4.3 339
02/08/2020 2:30 15.4 93 0.0 0 0.0 1.4 5.1 329
02/08/2020 2:40 15.4 92 0.0 0 0.0 1.9 6.9 344
02/08/2020 2:50 15.4 92 0.0 0 0.0 1.2 4.3 346
02/08/2020 3:00 15.4 92 0.0 0 0.0 1.1 3.9 352
02/08/2020 3:10 15.4 92 0.0 0 0.0 1.6 5.8 353
02/08/2020 3:20 15.5 92 0.0 0 0.0 2.1 7.5 355
02/08/2020 3:30 15.5 92 0.0 0 0.0 1.8 6.4 352
02/08/2020 3:40 15.5 93 0.0 0 0.0 1.6 5.7 335
02/08/2020 3:50 15.5 93 0.0 0 0.0 1.5 5.3 356
02/08/2020 4:00 15.6 94 0.0 0 0.0 1.5 5.3 352
02/08/2020 4:10 15.5 95 0.0 0 0.0 1.7 6.1 343
02/08/2020 4:20 15.4 95 0.0 0 0.0 1.3 4.8 343
02/08/2020 4:30 15.5 95 0.0 0 0.0 1.6 5.8 332
02/08/2020 4:40 15.5 95 0.0 0 0.0 2.1 7.7 331
02/08/2020 4:50 15.6 94 0.0 0 0.0 2.0 7.1 345
02/08/2020 5:00 15.6 95 0.0 0 0.0 1.6 5.8 351
02/08/2020 5:10 15.6 95 0.0 0 0.0 2.4 8.5 347
02/08/2020 5:20 15.5 95 0.0 0 0.0 2.3 8.4 344
02/08/2020 5:30 15.5 94 0.0 0 0.0 2.6 9.3 347
02/08/2020 5:40 15.5 94 8.6 0 0.1 1.8 6.5 345
02/08/2020 5:50 15.4 94 26.7 0 0.0 1.5 5.3 344
02/08/2020 6:00 15.3 95 19.8 0 0.2 2.1 7.6 348
02/08/2020 6:10 15.3 95 31.5 0 0.0 2.2 8.0 340
02/08/2020 6:20 15.3 95 44.4 0 0.0 1.6 5.7 353
02/08/2020 6:30 15.3 95 36.1 0 0.2 2.1 7.7 338
02/08/2020 6:40 15.3 95 63.5 0 0.1 2.5 9.1 344
02/08/2020 6:50 15.2 94 76.9 0 0.0 1.7 6.3 339
02/08/2020 7:00 15.2 95 38.9 0 0.3 1.8 6.6 346
02/08/2020 7:10 15.2 94 48.7 0 0.2 2.6 9.2 350
02/08/2020 7:20 15.0 93 112.5 0 0.2 2.7 9.8 359
02/08/2020 7:30 15.0 93 177.0 0 0.0 2.4 8.5 339
02/08/2020 7:40 15.3 93 162.7 90 0.0 2.2 7.9 338
02/08/2020 7:50 15.4 92 68.9 0 0.0 2.0 7.2 353
02/08/2020 8:00 15.3 91 103.6 0 0.0 2.2 8.0 349
02/08/2020 8:10 15.3 91 57.9 0 0.0 1.8 6.3 344
02/08/2020 8:20 15.2 92 111.5 0 0.0 1.3 4.7 336
02/08/2020 8:30 15.8 91 325.7 274 0.0 0.8 2.9 355
02/08/2020 8:40 16.7 87 537.6 600 0.0 1.3 4.5 334
02/08/2020 8:50 17.4 81 605.1 600 0.0 2.6 9.3 354
02/08/2020 9:00 17.0 80 353.6 210 0.0 2.9 10.5 346
02/08/2020 9:10 16.6 82 330.9 0 0.0 2.7 9.5 352
02/08/2020 9:20 16.8 81 343.7 116 0.0 1.8 6.5 9
02/08/2020 9:30 17.0 80 430.2 492 0.0 2.4 8.7 10
02/08/2020 9:40 17.6 78 391.7 234 0.0 1.5 5.3 315
02/08/2020 9:50 17.3 78 371.3 52 0.0 2.9 10.6 339
02/08/2020 10:00 17.4 78 396.7 162 0.0 2.5 8.9 325
02/08/2020 10:10 17.3 79 268.4 0 0.0 2.9 10.4 340
02/08/2020 10:20 17.0 80 295.0 0 0.0 3.0 10.8 325
02/08/2020 10:30 16.9 80 328.3 0 0.0 3.8 13.8 340
02/08/2020 10:40 17.2 78 580.9 310 0.0 4.2 15.2 340
02/08/2020 10:50 17.8 75 794.6 524 0.0 4.1 14.7 342
02/08/2020 11:00 17.6 77 441.0 144 0.0 4.2 14.9 337
02/08/2020 11:10 17.0 80 562.3 528 0.0 3.7 13.2 332
02/08/2020 11:20 17.4 79 480.0 224 0.0 2.9 10.4 320
02/08/2020 11:30 17.5 78 395.2 0 0.0 3.1 11.2 332
02/08/2020 11:40 17.3 78 343.8 0 0.0 3.2 11.4 340
02/08/2020 11:50 17.7 78 622.1 534 0.0 3.6 12.8 334
02/08/2020 12:00 18.4 75 818.0 600 0.0 3.7 13.4 330
02/08/2020 12:10 19.0 73 819.0 466 0.0 3.7 13.2 337
02/08/2020 12:20 18.1 75 322.0 0 0.0 2.6 9.3 327
02/08/2020 12:30 17.8 76 388.2 0 0.0 3.3 11.7 329
02/08/2020 12:40 17.7 77 258.1 0 0.0 2.9 10.6 338
02/08/2020 12:50 17.5 78 163.9 0 0.0 2.1 7.5 338
02/08/2020 13:00 17.4 78 226.4 0 0.0 2.4 8.6 347
02/08/2020 13:10 17.5 79 290.7 0 0.0 2.2 7.9 334
02/08/2020 13:20 17.6 78 202.3 0 0.0 2.3 8.4 336
02/08/2020 13:30 17.3 79 210.1 0 0.0 2.6 9.5 336
02/08/2020 13:40 17.3 79 174.5 0 0.0 2.9 10.5 330
02/08/2020 13:50 17.0 81 132.3 0 0.0 2.8 10.2 333
02/08/2020 14:00 16.9 81 99.1 0 0.0 2.6 9.4 332
02/08/2020 14:10 16.6 83 97.3 0 0.0 2.7 9.6 347
02/08/2020 14:20 16.6 82 149.1 0 0.0 2.0 7.3 10
02/08/2020 14:30 16.9 82 257.2 0 0.0 2.4 8.6 354
02/08/2020 14:40 17.0 81 258.4 0 0.0 3.0 10.8 0
02/08/2020 14:50 17.2 80 472.9 390 0.0 2.2 7.8 12
02/08/2020 15:00 17.8 78 359.2 166 0.0 2.2 7.9 0
02/08/2020 15:10 18.0 78 541.4 444 0.0 2.8 9.9 329
02/08/2020 15:20 17.8 77 193.6 0 0.0 2.7 9.7 350
02/08/2020 15:30 17.5 79 186.0 0 0.0 1.7 6.2 339
02/08/2020 15:40 17.1 78 187.5 0 0.0 2.5 9.1 356
02/08/2020 15:50 17.1 79 209.3 0 0.0 2.3 8.2 358
02/08/2020 16:00 17.1 77 185.1 0 0.0 2.2 8.0 3
02/08/2020 16:10 16.8 77 139.6 0 0.0 2.6 9.4 18
02/08/2020 16:20 16.5 79 112.6 0 0.0 3.0 10.6 4
02/08/2020 16:30 16.3 81 102.9 0 0.0 2.2 7.9 9
02/08/2020 16:40 15.8 83 79.9 0 0.0 2.3 8.3 350
02/08/2020 16:50 15.7 83 213.7 166 0.0 2.2 7.9 335
02/08/2020 17:00 16.1 82 210.4 98 0.0 2.2 7.8 327
02/08/2020 17:10 16.3 83 163.9 0 0.0 2.0 7.0 340
02/08/2020 17:20 16.3 83 141.7 0 0.0 2.3 8.2 349
02/08/2020 17:30 16.3 83 170.6 90 0.0 2.1 7.6 337
02/08/2020 17:40 16.5 82 134.0 108 0.0 2.6 9.4 338
02/08/2020 17:50 16.3 82 136.3 200 0.0 2.2 8.0 349
02/08/2020 18:00 16.4 82 37.8 0 0.0 2.2 8.0 335
02/08/2020 18:10 15.8 85 19.9 0 0.0 1.6 5.9 359
02/08/2020 18:20 15.8 85 32.9 0 0.0 2.3 8.2 1
02/08/2020 18:30 15.7 85 58.2 0 0.0 2.2 8.0 354
02/08/2020 18:40 15.7 85 50.7 0 0.0 2.6 9.4 355
02/08/2020 18:50 15.7 84 26.9 0 0.0 1.8 6.4 349
02/08/2020 19:00 15.7 84 8.6 0 0.0 1.5 5.3 340
02/08/2020 19:10 15.5 85 0.0 0 0.0 2.1 7.5 328
02/08/2020 19:20 15.4 85 0.0 0 0.0 1.9 7.0 338
02/08/2020 19:30 15.3 86 0.0 0 0.0 1.8 6.4 336
02/08/2020 19:40 15.1 86 0.0 0 0.0 1.5 5.5 335
02/08/2020 19:50 15.2 86 0.0 0 0.0 2.7 9.8 347
02/08/2020 20:00 15.3 85 0.0 0 0.0 1.9 6.7 344
02/08/2020 20:10 15.1 87 0.0 0 0.0 2.1 7.5 337
02/08/2020 20:20 15.1 87 0.0 0 0.0 1.7 6.1 343
02/08/2020 20:30 15.1 87 0.0 0 0.0 2.5 9.1 350
02/08/2020 20:40 15.2 87 0.0 0 0.0 1.9 6.9 346
02/08/2020 20:50 15.2 87 0.0 0 0.0 1.9 6.8 345
02/08/2020 21:00 15.2 87 0.0 0 0.0 0.9 3.3 350
02/08/2020 21:10 15.1 87 0.0 0 0.0 2.1 7.5 346
02/08/2020 21:20 15.1 87 0.0 0 0.0 2.3 8.2 358
02/08/2020 21:30 15.1 86 0.0 0 0.0 1.5 5.4 339
02/08/2020 21:40 15.0 86 0.0 0 0.0 2.1 7.4 351
02/08/2020 21:50 15.0 86 0.0 0 0.0 1.3 4.6 351
02/08/2020 22:00 15.0 86 0.0 0 0.0 1.5 5.4 345
02/08/2020 22:10 14.9 87 0.0 0 0.0 2.0 7.1 356
02/08/2020 22:20 14.8 88 0.0 0 0.0 1.9 7.0 354
02/08/2020 22:30 14.7 88 0.0 0 0.0 1.2 4.5 342
02/08/2020 22:40 14.7 88 0.0 0 0.0 1.8 6.6 349
02/08/2020 22:50 14.8 88 0.0 0 0.0 1.4 5.0 341
02/08/2020 23:00 14.7 88 0.0 0 0.0 1.3 4.6 330
02/08/2020 23:10 14.6 89 0.0 0 0.0 1.8 6.4 343
02/08/2020 23:20 14.8 87 0.0 0 0.0 2.3 8.2 343
02/08/2020 23:30 14.8 86 0.0 0 0.0 1.7 6.1 337
02/08/2020 23:40 14.8 87 0.0 0 0.0 2.2 7.9 345
02/08/2020 23:50 14.6 88 0.0 0 0.0 2.4 8.5 345
Anterior Página 1 de 1 Siguiente

NOTA: Tipo de datos según el color:
   - Valores diarios o 10 minutos correctos
   - Valores diarios calculados a partir de un número de datos 10 minutos menor que 144 y mayor que 120, o de un número de datos semihorarios menor que 48 y mayor que 40 (caso de las estaciones de INTIA y del Ministerio)
   - Valores diez minutos estimados


Contacto        Enlaces        Aviso legal